Aviation Digital Data Service (ADDS)

Output produced by METARs form (1304 UTC 21 February 2018)
found at http://www.aviationweather.gov/adds/metars/
 
TAF RJSK 201107Z 2012/2118 30010KT 8000 -SHSN FEW010 BKN020 BKN030 
     TEMPO 2012/2018 3000 -SHSN 
     TEMPO 2018/2100 0700 SHSN FEW002 BKN005 BKN008 
     TEMPO 2100/2109 1500 -SHSN FEW005 BKN008 BKN015 
     TEMPO 2109/2118 3000 -SHSN
       
RJSA 211243Z 23007KT 4000 -SHSN FEW002 SCT006 BKN020 M07/M08 Q1018 RMK 1ST002 3ST006 5CU020 A3006
TAF RJSA 201105Z 2012/2118 24010KT 6000 -SHSN FEW010 BKN015 BKN020 
     TEMPO 2012/2021 0700 SHSN FEW002 BKN005 BKN008 
     TEMPO 2021/2103 1500 -SHSN FEW005 BKN008 BKN015 
     TEMPO 2103/2109 0700 SHSN FEW002 BKN005 BKN008 
     TEMPO 2109/2118 1500 -SHSN FEW005 BKN008 BKN015
       
TAF RJEC 201109Z 2012/2118 29005KT 9999 FEW008 BKN030 
     TEMPO 2012/2015 1500 -SHSN FEW005 BKN008 
     BECMG 2014/2016 19011KT 
     BECMG 2100/2103 30010KT 
     TEMPO 2100/2109 2000 -SHSN 
     TEMPO 2115/2118 2000 -SHSN
       
RJFF 211230Z 02004KT 340V090 9999 FEW030 SCT040 BKN050 07/00 Q1019
TAF RJFF 201106Z 2012/2118 14003KT 9999 FEW045 
     BECMG 2022/2100 34011KT 
     BECMG 2112/2115 13003KT
       
TAF RJSF 201105Z 2012/2118 14004KT 8000 -SHSN FEW010 BKN020 BKN030 
     TEMPO 2012/2018 3000 -SHSN 
     BECMG 2016/2018 34012KT
       
ROTM 211156Z 05009KT 9999 FEW110 16/13 A3000 RMK SLP150 STNPR29700 T01670134 10194 20161 50008
TAF RJCH 201113Z 2012/2118 32006KT 9999 FEW008 BKN015 
     TEMPO 2012/2018 3000 -SHSN 
     TEMPO 2100/2106 28018G28KT 3000 -SHSN
       
TAF RJOA 201105Z 2012/2118 34005KT 9999 FEW030
       
TAF RJAH 201105Z 2012/2118 36006KT 9999 FEW020 SCT040 
     BECMG 2103/2106 12010KT 
     BECMG 2109/2112 02004KT
       
TAF ROIG 201111Z 2012/2118 14004KT 9999 FEW010 SCT020 
     BECMG 2019/2021 02012KT 
     TEMPO 2019/2021 4000 SHRA FEW005 BKN008 FEW015CB
       
TAF RJOI 2015/2115 VRB05KT 9999 FEW030 BKN140 BKN160 621404 QNH3003INS 
     FM210000 30008KT 9999 FEW030 BKN100 BKN180 620303 621005 QNH3000INS 
     FM211200 VRB05KT 9999 FEW025 SCT080 BKN200 620252 620804 QNH3010INS T11/2106Z T03/2115Z
       
TAF RJOC 201105Z 2012/2118 17004KT 9999 FEW030 SCT050 
     BECMG 2100/2103 32010KT 
     BECMG 2109/2112 07005KT 
     TEMPO 2112/2118 3000 -SHSN
       
RODN 211256Z AUTO 05008KT 10SM CLR 15/12 A3000 RMK AO2 SLP166 T01460123
TAF AMD RODN 201507Z 2015/2114 23012KT 9999 BKN020 QNH2991INS 
     TEMPO 2021/2103 9000 -SHRA 
     BECMG 2102/2103 03018KT 9999 BKN008 QNH2995INS TX21/2108Z TN19/2021Z
       
TAF RJFK 201106Z 2012/2118 07003KT 9999 FEW020 SCT030 
     BECMG 2013/2015 03005KT 
     TEMPO 2017/2020 3000 RA BR FEW003 BKN008 BKN010 
     TEMPO 2020/2023 1500 -RA BR FEW002 BKN008 BKN010
       
RJBB 211230Z 05013KT 9999 FEW030 BKN060 06/M02 Q1019 NOSIG
TAF RJBB 201105Z 2012/2118 36009KT CAVOK 
     BECMG 2103/2106 29007KT 
     BECMG 2109/2112 02010KT
       
TAF RJFR 201108Z 2012/2118 34010KT 9999 FEW025 SCT050
       
TAF RJOK 201105Z 2012/2118 35007KT 9999 FEW030 
     BECMG 2103/2106 18005KT 
     BECMG 2109/2112 34011KT
       
TAF RJNK 201107Z 2012/2118 14004KT 9999 FEW020 BKN050 
     BECMG 2100/2103 30006KT 
     BECMG 2106/2109 02006KT 
     TEMPO 2109/2118 1500 -SHSN FEW005 BKN008
       
TAF RJFT 201110Z 2012/2118 05006KT 9999 FEW030 
     BECMG 2103/2106 31008KT 
     BECMG 2109/2112 03005KT
       
TAF RJCK 201111Z 2012/2118 27005KT 9999 FEW030 
     TEMPO 2100/2106 26015G25KT
       
TAF RJOM 201105Z 2012/2118 12006KT 9999 FEW025 
     BECMG 2100/2103 35006KT 
     BECMG 2112/2115 12006KT
       
TAF RJCM 201114Z 2012/2118 36005KT 9999 FEW008 BKN015 
     TEMPO 2012/2015 2000 -SHSN FEW005 BKN008 
     BECMG 2015/2017 20007KT 
     BECMG 2100/2103 02005KT 
     TEMPO 2103/2109 2000 -SHSN 
     BECMG 2109/2112 21005KT
       
TAF RJOH 201105Z 2012/2118 18004KT 9999 FEW030 SCT050 
     BECMG 2100/2103 30010KT 
     BECMG 2109/2112 02006KT 
     TEMPO 2112/2118 3000 -SHSN
       
TAF RJFM 201108Z 2012/2118 31005KT 9999 FEW030 
     TEMPO 2018/2100 4000 SHRA BR FEW005 BKN007 BKN015 
     BECMG 2100/2103 05006KT
       
TAF RJFU 201111Z 2012/2118 02007KT 9999 FEW030 
     BECMG 2013/2015 12004KT 
     BECMG 2022/2100 33012KT 
     BECMG 2112/2115 12004KT
       
ROAH 211230Z 05010KT CAVOK 18/13 Q1015
TAF ROAH 201105Z 2012/2118 26005KT 9999 FEW015 SCT030 BKN045 
     BECMG 2019/2021 34016KT 
     TEMPO 2021/2100 34020G30KT SHRA 
     BECMG 2109/2112 05006KT
       
RJCC 211230Z 13003KT 9999 FEW025 M13/M16 Q1017
TAF RJCC 201105Z 2012/2118 25006KT 9999 FEW020 BKN050 
     BECMG 2100/2103 32012KT 
     BECMG 2109/2112 23006KT
       
RJAA 211230Z 09007KT 9999 FEW040 BKN045 05/M02 Q1017 NOSIG
TAF AMD RJAA 201404Z 2014/2118 34010KT 9999 FEW020 BKN040 
     BECMG 2103/2106 12010KT 
     BECMG 2112/2115 02008KT
       
TAF RJSN 201105Z 2012/2118 33014KT 8000 FEW010 BKN020 
     TEMPO 2012/2014 1800 -SHSNGS FEW003 BKN005 FEW015CB 
     TEMPO 2016/2019 32025G37KT 
     TEMPO 2103/2106 4000 -SHSN FEW005 BKN008 
     TEMPO 2106/2112 2000 -SHSN FEW005 BKN008
       
TAF RJCB 201107Z 2012/2118 30005KT 9999 FEW030 
     BECMG 2112/2115 15005KT
       
TAF RJFO 201110Z 2012/2118 26005KT 9999 FEW045 
     BECMG 2021/2023 36008KT
       
TAF RJOB 201105Z 2012/2118 35004KT 9999 FEW025 
     BECMG 2100/2103 27008KT 
     BECMG 2106/2109 36004KT
       
TAF RJOO 201105Z 2012/2118 33005KT 9999 FEW030
       
TAF RJFS 201109Z 2012/2118 03007KT 9999 FEW030 
     BECMG 2018/2020 35007KT 
     BECMG 2112/2115 02007KT
       
TAF RJSS 201105Z 2012/2118 03004KT 9999 FEW020 BKN040 
     BECMG 2012/2014 30010KT 
     TEMPO 2012/2015 3000 -SHSN
       
TAF RJOT 201105Z 2012/2118 18005KT 9999 FEW025 
     BECMG 2013/2015 15005KT 
     BECMG 2100/2103 29006KT 
     BECMG 2112/2115 15005KT
       
RJTT 211230Z 09014KT 9999 FEW030 BKN080 07/00 Q1016 NOSIG RMK 1CU030 6AC080 A3002
TAF RJTT 201105Z 2012/2118 14010KT 9999 FEW030 
     BECMG 2012/2014 35012KT 
     BECMG 2103/2106 12010KT 
     BECMG 2112/2115 36012KT
       
TAF RJNT 201106Z 2012/2118 19005KT 9999 FEW020 BKN050 
     BECMG 2103/2106 34004KT 
     TEMPO 2109/2112 1500 -SHSN FEW003 BKN005 
     TEMPO 2112/2118 2000 -SHSN FEW005 BKN008
       
RJTY 211256Z AUTO 00000KT 10SM R36/4500FT OVC050 05/M03 A3007 RMK AO2 SLP192 T00521034 FZRANO $
TAF RJTY 211300Z 2113/2219 VRB06KT 9999 BKN030 610305 QNH3005INS 
     BECMG 2118/2119 07009KT 9999 BKN010 620107 QNH3012INS 
     TEMPO 2210/2212 8000 -SHSN 
     BECMG 2216/2217 33009KT 8000 -SHSN BKN005 620054 QNH3008INS TX05/2206Z TN01/2122Z LAST NO AMDS AFT 2113 NEXT 2121